sensor_id;sensor_type;location;lat;lon;timestamp;P1;durP1;ratioP1;P2;durP2;ratioP2
41705;SDS011;27385;51.096;17.190;2023-12-04T00:00:45;62.00;;;26.40;;
41705;SDS011;27385;51.096;17.190;2023-12-04T00:04:37;72.10;;;27.50;;
41705;SDS011;27385;51.096;17.190;2023-12-04T00:07:49;72.40;;;28.30;;
41705;SDS011;27385;51.096;17.190;2023-12-04T00:11:21;67.80;;;25.40;;
41705;SDS011;27385;51.096;17.190;2023-12-04T00:14:34;73.30;;;27.20;;
41705;SDS011;27385;51.096;17.190;2023-12-04T00:17:47;72.80;;;27.60;;
41705;SDS011;27385;51.096;17.190;2023-12-04T00:21:39;70.60;;;27.70;;
41705;SDS011;27385;51.096;17.190;2023-12-04T00:24:50;67.80;;;25.30;;
41705;SDS011;27385;51.096;17.190;2023-12-04T00:28:21;63.80;;;27.10;;
41705;SDS011;27385;51.096;17.190;2023-12-04T00:31:34;62.00;;;23.90;;
41705;SDS011;27385;51.096;17.190;2023-12-04T00:35:08;59.60;;;24.90;;
41705;SDS011;27385;51.096;17.190;2023-12-04T00:38:41;61.40;;;23.20;;
41705;SDS011;27385;51.096;17.190;2023-12-04T00:41:32;60.00;;;24.30;;
41705;SDS011;27385;51.096;17.190;2023-12-04T00:45:06;61.70;;;22.10;;
41705;SDS011;27385;51.096;17.190;2023-12-04T00:48:58;57.70;;;22.40;;
41705;SDS011;27385;51.096;17.190;2023-12-04T00:52:30;60.70;;;24.60;;
41705;SDS011;27385;51.096;17.190;2023-12-04T00:56:03;58.50;;;23.70;;
41705;SDS011;27385;51.096;17.190;2023-12-04T00:58:55;64.60;;;25.20;;
41705;SDS011;27385;51.096;17.190;2023-12-04T01:02:13;62.70;;;24.40;;
41705;SDS011;27385;51.096;17.190;2023-12-04T01:05:46;60.60;;;23.00;;
41705;SDS011;27385;51.096;17.190;2023-12-04T01:08:38;59.90;;;22.40;;
41705;SDS011;27385;51.096;17.190;2023-12-04T01:11:31;58.70;;;23.00;;
41705;SDS011;27385;51.096;17.190;2023-12-04T01:14:24;66.20;;;24.90;;
41705;SDS011;27385;51.096;17.190;2023-12-04T01:17:57;49.10;;;22.30;;
41705;SDS011;27385;51.096;17.190;2023-12-04T01:21:30;70.10;;;23.30;;
41705;SDS011;27385;51.096;17.190;2023-12-04T01:25:43;59.80;;;22.90;;
41705;SDS011;27385;51.096;17.190;2023-12-04T01:29:37;67.30;;;24.40;;
41705;SDS011;27385;51.096;17.190;2023-12-04T01:32:28;56.80;;;23.40;;
41705;SDS011;27385;51.096;17.190;2023-12-04T01:35:41;56.60;;;20.30;;
41705;SDS011;27385;51.096;17.190;2023-12-04T01:39:13;57.10;;;20.80;;
41705;SDS011;27385;51.096;17.190;2023-12-04T01:42:30;58.00;;;21.40;;
41705;SDS011;27385;51.096;17.190;2023-12-04T01:46:03;54.20;;;20.70;;
41705;SDS011;27385;51.096;17.190;2023-12-04T01:48:59;52.30;;;20.90;;
41705;SDS011;27385;51.096;17.190;2023-12-04T01:51:54;56.10;;;21.60;;
41705;SDS011;27385;51.096;17.190;2023-12-04T01:55:46;51.30;;;21.40;;
41705;SDS011;27385;51.096;17.190;2023-12-04T01:58:59;56.70;;;21.10;;
41705;SDS011;27385;51.096;17.190;2023-12-04T02:02:11;59.40;;;22.70;;
41705;SDS011;27385;51.096;17.190;2023-12-04T02:05:45;60.20;;;20.00;;
41705;SDS011;27385;51.096;17.190;2023-12-04T02:08:38;55.80;;;20.10;;
41705;SDS011;27385;51.096;17.190;2023-12-04T02:11:32;56.20;;;21.50;;
41705;SDS011;27385;51.096;17.190;2023-12-04T02:17:45;69.70;;;24.70;;
41705;SDS011;27385;51.096;17.190;2023-12-04T02:20:37;64.00;;;25.20;;
41705;SDS011;27385;51.096;17.190;2023-12-04T02:23:28;71.10;;;27.50;;
41705;SDS011;27385;51.096;17.190;2023-12-04T02:27:22;90.10;;;30.50;;
41705;SDS011;27385;51.096;17.190;2023-12-04T02:30:42;77.60;;;30.80;;
41705;SDS011;27385;51.096;17.190;2023-12-04T02:34:15;81.60;;;31.00;;
41705;SDS011;27385;51.096;17.190;2023-12-04T02:38:07;67.70;;;26.30;;
41705;SDS011;27385;51.096;17.190;2023-12-04T02:40:59;70.40;;;26.90;;
41705;SDS011;27385;51.096;17.190;2023-12-04T02:44:13;78.90;;;30.90;;
41705;SDS011;27385;51.096;17.190;2023-12-04T02:47:25;73.00;;;29.60;;
41705;SDS011;27385;51.096;17.190;2023-12-04T02:50:38;87.70;;;32.40;;
41705;SDS011;27385;51.096;17.190;2023-12-04T02:54:10;73.10;;;30.20;;
41705;SDS011;27385;51.096;17.190;2023-12-04T02:57:04;77.90;;;30.30;;
41705;SDS011;27385;51.096;17.190;2023-12-04T03:00:19;89.70;;;34.70;;
41705;SDS011;27385;51.096;17.190;2023-12-04T03:03:31;86.90;;;34.30;;
41705;SDS011;27385;51.096;17.190;2023-12-04T03:07:23;109.70;;;43.00;;
41705;SDS011;27385;51.096;17.190;2023-12-04T03:10:54;104.30;;;41.90;;
41705;SDS011;27385;51.096;17.190;2023-12-04T03:14:26;93.00;;;35.90;;
41705;SDS011;27385;51.096;17.190;2023-12-04T03:18:00;85.80;;;34.60;;
41705;SDS011;27385;51.096;17.190;2023-12-04T03:21:11;84.30;;;35.40;;
41705;SDS011;27385;51.096;17.190;2023-12-04T03:24:23;91.30;;;36.20;;
41705;SDS011;27385;51.096;17.190;2023-12-04T03:27:37;86.40;;;35.10;;
41705;SDS011;27385;51.096;17.190;2023-12-04T03:31:50;82.70;;;30.80;;
41705;SDS011;27385;51.096;17.190;2023-12-04T03:35:03;77.90;;;27.50;;
41705;SDS011;27385;51.096;17.190;2023-12-04T03:38:17;71.00;;;26.00;;
41705;SDS011;27385;51.096;17.190;2023-12-04T03:42:10;66.60;;;24.00;;
41705;SDS011;27385;51.096;17.190;2023-12-04T03:45:41;60.20;;;20.30;;
41705;SDS011;27385;51.096;17.190;2023-12-04T03:49:13;61.00;;;22.80;;
41705;SDS011;27385;51.096;17.190;2023-12-04T03:52:07;61.30;;;22.80;;
41705;SDS011;27385;51.096;17.190;2023-12-04T03:55:39;59.10;;;21.10;;
41705;SDS011;27385;51.096;17.190;2023-12-04T03:58:50;65.60;;;21.30;;
41705;SDS011;27385;51.096;17.190;2023-12-04T04:01:44;65.60;;;21.50;;
41705;SDS011;27385;51.096;17.190;2023-12-04T04:04:35;59.60;;;20.20;;
41705;SDS011;27385;51.096;17.190;2023-12-04T04:07:49;63.30;;;21.40;;
41705;SDS011;27385;51.096;17.190;2023-12-04T04:10:44;57.50;;;21.80;;
41705;SDS011;27385;51.096;17.190;2023-12-04T04:14:16;50.80;;;20.00;;
41705;SDS011;27385;51.096;17.190;2023-12-04T04:17:08;51.50;;;19.40;;
41705;SDS011;27385;51.096;17.190;2023-12-04T04:20:23;56.90;;;18.80;;
41705;SDS011;27385;51.096;17.190;2023-12-04T04:23:55;55.80;;;19.80;;
41705;SDS011;27385;51.096;17.190;2023-12-04T04:26:50;55.80;;;20.00;;
41705;SDS011;27385;51.096;17.190;2023-12-04T04:30:22;57.50;;;21.70;;
41705;SDS011;27385;51.096;17.190;2023-12-04T04:34:14;73.60;;;25.30;;
41705;SDS011;27385;51.096;17.190;2023-12-04T04:37:27;74.30;;;25.80;;
41705;SDS011;27385;51.096;17.190;2023-12-04T04:40:39;70.10;;;26.50;;
